Time;durP1;ratioP1;P1;durP2;ratioP2;P2;SDS_P1;SDS_P2;PMS_P1;PMS_P2;Temp;Humidity;BMP_temperature;BMP_pressure;BME280_temperature;BME280_humidity;BME280_pressure;Samples;Min_cycle;Max_cycle;Signal;HPM_P1;HPM_P2
2022/11/16 00:00:30;;;;;;;48.95;28.77;;;;;;;8.98;100.00;100316.88;4965991;29;20020;-76
2022/11/16 00:02:56;;;;;;;52.28;29.42;;;;;;;8.99;100.00;100306.91;4951570;29;20035;-77
2022/11/16 00:05:21;;;;;;;55.20;32.22;;;;;;;8.79;100.00;100311.72;4966121;29;20031;-75
2022/11/16 00:07:47;;;;;;;59.13;32.72;;;;;;;8.68;100.00;100314.72;4949839;29;20031;-76
2022/11/16 00:10:12;;;;;;;60.17;33.05;;;;;;;8.61;100.00;100305.56;4949947;29;20038;-76
2022/11/16 00:12:38;;;;;;;60.13;33.00;;;;;;;8.60;100.00;100301.16;4964127;29;20063;-75
2022/11/16 00:15:05;;;;;;;58.30;32.58;;;;;;;8.51;100.00;100296.72;4963930;28;20035;-76
2022/11/16 00:17:31;;;;;;;58.80;32.05;;;;;;;8.58;100.00;100297.78;4963714;29;20031;-76
2022/11/16 00:19:57;;;;;;;63.30;34.05;;;;;;;8.54;100.00;100291.88;4964299;29;20024;-77
2022/11/16 00:22:22;;;;;;;63.40;35.10;;;;;;;8.44;100.00;100291.13;4964534;29;20051;-75
2022/11/16 00:24:48;;;;;;;61.83;33.53;;;;;;;8.45;100.00;100291.97;4949534;29;20027;-76
2022/11/16 00:27:13;;;;;;;58.67;33.92;;;;;;;8.52;100.00;100279.53;4963709;29;20028;-76
2022/11/16 00:29:38;;;;;;;61.13;35.30;;;;;;;8.42;100.00;100293.97;4963753;29;20023;-76
2022/11/16 00:32:04;;;;;;;65.63;35.42;;;;;;;8.52;100.00;100298.41;4963343;29;20028;-76
2022/11/16 00:34:29;;;;;;;59.75;32.95;;;;;;;8.57;100.00;100285.28;4962681;28;20039;-76
2022/11/16 00:36:55;;;;;;;66.93;35.78;;;;;;;8.45;100.00;100286.56;4948649;29;20031;-76
2022/11/16 00:39:20;;;;;;;68.32;34.83;;;;;;;8.43;100.00;100290.28;4947813;29;20087;-76
2022/11/16 00:41:47;;;;;;;68.80;37.42;;;;;;;8.27;100.00;100290.09;4963092;29;20031;-76
2022/11/16 00:44:12;;;;;;;68.60;36.58;;;;;;;8.40;100.00;100293.25;4962821;29;20118;-76
2022/11/16 00:46:38;;;;;;;71.57;35.70;;;;;;;8.42;100.00;100299.38;4963824;29;20032;-76
2022/11/16 00:49:06;;;;;;;64.05;36.50;;;;;;;8.35;100.00;100292.91;4962933;29;20181;-76
2022/11/16 00:51:33;;;;;;;66.40;34.78;;;;;;;8.48;100.00;100286.25;4963404;29;20046;-76
2022/11/16 00:53:59;;;;;;;65.63;35.10;;;;;;;8.58;100.00;100286.97;4947201;29;20034;-76
2022/11/16 00:56:24;;;;;;;64.88;34.45;;;;;;;8.73;100.00;100274.56;4962603;29;20114;-75
2022/11/16 00:58:49;;;;;;;74.05;36.40;;;;;;;8.65;100.00;100275.38;4962621;29;20027;-74
2022/11/16 01:01:15;;;;;;;66.53;36.80;;;;;;;8.46;100.00;100274.75;4962590;29;20042;-76
2022/11/16 01:03:40;;;;;;;63.65;34.75;;;;;;;8.54;100.00;100275.69;4946647;29;20028;-74
2022/11/16 01:06:09;;;;;;;64.70;34.85;;;;;;;8.46;100.00;100277.47;4947418;29;20175;-75
2022/11/16 01:08:37;;;;;;;64.90;34.97;;;;;;;8.52;100.00;100276.81;4947381;29;20036;-75
2022/11/16 01:13:47;;;;;;;67.57;35.15;;;;;;;8.53;100.00;100278.50;4947564;29;20535;-75
2022/11/16 01:16:15;;;;;;;65.15;35.20;;;;;;;8.41;100.00;100273.41;4962144;29;20034;-75
2022/11/16 01:18:40;;;;;;;69.25;36.85;;;;;;;8.27;100.00;100268.53;4962922;29;20023;-74
2022/11/16 01:21:06;;;;;;;68.03;34.55;;;;;;;8.25;100.00;100270.56;4945625;29;20030;-75
2022/11/16 01:23:31;;;;;;;71.40;36.13;;;;;;;8.18;100.00;100269.50;4960855;29;20039;-75
2022/11/16 01:26:00;;;;;;;69.32;37.17;;;;;;;8.12;100.00;100281.75;4961332;29;20027;-75
2022/11/16 01:28:27;;;;;;;70.25;35.97;;;;;;;8.11;100.00;100274.66;4961030;29;20023;-75
2022/11/16 01:30:52;;;;;;;76.55;38.42;;;;;;;8.13;100.00;100267.25;4945808;29;20034;-75
2022/11/16 01:33:18;;;;;;;65.35;36.38;;;;;;;8.01;100.00;100267.66;4960908;29;20059;-75
2022/11/16 01:35:43;;;;;;;63.65;35.75;;;;;;;8.09;100.00;100275.84;4961040;29;20100;-74
2022/11/16 01:38:09;;;;;;;73.20;35.60;;;;;;;8.02;100.00;100269.34;4960648;29;20027;-75
2022/11/16 01:40:36;;;;;;;71.05;36.33;;;;;;;8.15;100.00;100269.81;4945868;29;20023;-75
2022/11/16 01:43:01;;;;;;;74.75;37.40;;;;;;;8.16;100.00;100266.13;4944464;29;20024;-75
2022/11/16 01:45:37;;;;;;;65.93;36.35;;;;;;;8.25;100.00;100262.47;4960030;29;20066;-75
2022/11/16 01:48:03;;;;;;;70.38;35.42;;;;;;;8.28;100.00;100264.84;4945657;29;20023;-75
2022/11/16 01:50:28;;;;;;;76.78;36.95;;;;;;;8.37;100.00;100258.53;4960362;29;20047;-75
2022/11/16 01:53:01;;;;;;;70.32;38.15;;;;;;;8.40;100.00;100258.19;4945497;29;20039;-75
2022/11/16 01:55:29;;;;;;;67.88;35.30;;;;;;;8.21;100.00;100252.97;4945756;29;20091;-75
2022/11/16 01:57:55;;;;;;;71.32;36.30;;;;;;;8.15;100.00;100248.25;4945385;29;20020;-76
2022/11/16 02:00:21;;;;;;;74.75;38.50;;;;;;;7.96;100.00;100237.66;4944906;29;20051;-76
2022/11/16 02:02:46;;;;;;;71.85;39.05;;;;;;;8.20;100.00;100235.13;4959375;29;20031;-76
2022/11/16 02:05:16;;;;;;;71.95;36.35;;;;;;;8.09;100.00;100238.94;4959074;29;20023;-76
2022/11/16 02:11:17;;;;;;;76.35;38.15;;;;;;;7.89;100.00;100227.50;4944275;29;20064;-76
2022/11/16 02:13:59;;;;;;;76.82;39.25;;;;;;;7.67;100.00;100233.38;4959106;29;20035;-76
2022/11/16 02:16:53;;;;;;;80.18;40.05;;;;;;;7.77;100.00;100223.38;4944388;29;20030;-76
2022/11/16 02:19:42;;;;;;;83.53;41.80;;;;;;;7.81;100.00;100219.34;4943025;29;20023;-75
2022/11/16 02:22:25;;;;;;;81.32;39.47;;;;;;;7.81;100.00;100213.94;4943990;29;20091;-75
2022/11/16 02:25:21;;;;;;;87.72;39.75;;;;;;;7.71;100.00;100213.22;4958730;29;20027;-75
2022/11/16 02:28:04;;;;;;;90.22;42.78;;;;;;;7.66;100.00;100210.13;4944132;29;20023;-75
2022/11/16 02:30:29;;;;;;;;;;;;;;;7.67;100.00;100217.22;4958767;29;20156;-74
2022/11/16 02:33:03;;;;;;;89.90;42.08;;;;;;;7.60;100.00;100213.44;4942924;29;20032;-75
2022/11/16 02:35:37;;;;;;;87.13;40.25;;;;;;;7.74;100.00;100218.28;4957514;29;20062;-75
2022/11/16 02:38:10;;;;;;;95.22;43.13;;;;;;;7.62;100.00;100214.97;4942094;29;20064;-75
2022/11/16 02:40:39;;;;;;;88.20;41.13;;;;;;;7.68;100.00;100208.13;4956396;29;20020;-75
2022/11/16 02:43:08;;;;;;;94.10;40.97;;;;;;;7.60;100.00;100194.59;4956051;29;20504;-75
2022/11/16 02:45:39;;;;;;;94.40;42.30;;;;;;;7.70;100.00;100195.34;4955902;29;20031;-75
2022/11/16 02:48:13;;;;;;;98.28;42.53;;;;;;;7.69;100.00;100204.41;4956391;29;20027;-75
2022/11/16 02:50:39;;;;;;;101.78;46.15;;;;;;;7.48;100.00;100202.06;4939848;29;20015;-74
2022/11/16 02:53:04;;;;;;;105.93;44.25;;;;;;;7.61;100.00;100207.06;4940753;29;20038;-75
2022/11/16 02:55:33;;;;;;;108.60;44.72;;;;;;;7.66;100.00;100193.97;4956186;29;20027;-75
2022/11/16 02:58:05;;;;;;;103.35;45.53;;;;;;;7.58;100.00;100196.59;4942825;29;20031;-75
2022/11/16 03:00:47;;;;;;;104.43;42.67;;;;;;;7.49;100.00;100192.13;4943727;29;20028;-75
2022/11/16 03:03:25;;;;;;;108.95;44.53;;;;;;;7.63;100.00;100210.47;4943261;29;20046;-75
2022/11/16 03:06:02;;;;;;;106.10;45.08;;;;;;;7.69;100.00;100209.81;4943718;29;20074;-75
2022/11/16 03:08:30;;;;;;;106.63;43.50;;;;;;;7.64;100.00;100204.06;4943496;29;20026;-75
2022/11/16 03:13:47;;;;;;;96.75;41.40;;;;;;;7.72;100.00;100204.13;4944622;29;20031;-75
2022/11/16 03:16:21;;;;;;;99.95;41.90;;;;;;;7.79;100.00;100205.19;4943222;29;20114;-75
2022/11/16 03:18:50;;;;;;;96.93;44.05;;;;;;;7.76;100.00;100199.25;4959960;29;20028;-75
2022/11/16 03:21:34;;;;;;;104.38;42.58;;;;;;;7.81;100.00;100187.00;4959448;29;20031;-75
2022/11/16 03:24:00;;;;;;;104.32;41.88;;;;;;;7.55;100.00;100186.97;4944592;29;20036;-74
2022/11/16 03:26:33;;;;;;;101.68;42.85;;;;;;;7.73;100.00;100195.03;4944238;29;20026;-75
2022/11/16 03:28:58;;;;;;;100.25;42.50;;;;;;;7.72;100.00;100201.44;4959845;29;20036;-76
2022/11/16 03:31:49;;;;;;;106.03;43.20;;;;;;;7.70;100.00;100211.53;4944064;29;20032;-74
2022/11/16 03:34:18;;;;;;;97.15;40.65;;;;;;;7.67;100.00;100210.97;4942992;29;20035;-74
2022/11/16 03:36:47;;;;;;;95.78;39.83;;;;;;;7.82;100.00;100196.81;4959875;29;20401;-74
2022/11/16 03:39:36;;;;;;;99.88;40.95;;;;;;;7.83;100.00;100190.41;4959714;29;20043;-74
2022/11/16 03:42:06;;;;;;;100.65;41.90;;;;;;;7.71;100.00;100197.03;4959053;29;20031;-74
2022/11/16 03:44:34;;;;;;;93.07;40.13;;;;;;;7.75;100.00;100182.22;4943256;29;20035;-74
2022/11/16 03:47:00;;;;;;;91.18;38.72;;;;;;;7.87;100.00;100189.06;4944568;29;20094;-74
2022/11/16 03:49:29;;;;;;;92.60;40.22;;;;;;;7.66;100.00;100193.97;4958507;29;20024;-75
2022/11/16 03:51:54;;;;;;;103.93;38.65;;;;;;;7.66;100.00;100193.97;4958132;29;20071;-75
2022/11/16 03:54:20;;;;;;;97.15;39.70;;;;;;;7.59;100.00;100204.53;4957819;29;20035;-74
2022/11/16 03:56:45;;;;;;;80.50;37.58;;;;;;;7.53;100.00;100204.28;4988771;23;20047;-72
2022/11/16 03:59:10;;;;;;;90.07;38.70;;;;;;;7.89;100.00;100194.31;4947656;28;20038;-73
2022/11/16 04:01:36;;;;;;;96.82;41.30;;;;;;;7.66;100.00;100193.97;4951024;28;20091;-72
2022/11/16 04:04:01;;;;;;;88.90;40.38;;;;;;;7.66;100.00;100193.97;4936380;29;20480;-72
2022/11/16 04:26:09;;;;;;;93.80;37.58;;;;;;;7.52;100.00;100202.59;4936247;29;20086;-72
2022/11/16 04:28:35;;;;;;;90.80;39.47;;;;;;;7.68;100.00;100197.34;4950919;29;20027;-72
2022/11/16 04:39:16;;;;;;;92.80;39.90;;;;;;;7.73;100.00;100192.34;4935766;29;20059;-72
2022/11/16 04:47:05;;;;;;;85.60;38.28;;;;;;;7.45;100.00;100196.16;4935353;29;20535;-72
2022/11/16 04:47:11;;;;;;;96.18;40.80;;;;;;;7.39;100.00;100207.53;4935484;29;20027;-72
2022/11/16 04:49:36;;;;;;;84.72;38.33;;;;;;;7.65;100.00;100211.13;4950551;29;20493;-74
2022/11/16 04:52:01;;;;;;;87.25;40.15;;;;;;;7.54;100.00;100211.38;4935388;29;20032;-73
2022/11/16 04:54:27;;;;;;;89.07;41.00;;;;;;;7.53;100.00;100204.28;4933626;29;20028;-73
2022/11/16 04:56:52;;;;;;;83.75;36.08;;;;;;;7.54;100.00;100205.97;4934425;29;20039;-72
2022/11/16 04:59:18;;;;;;;88.70;39.85;;;;;;;7.57;100.00;100208.38;4935368;29;20028;-73
2022/11/16 05:04:27;;;;;;;91.45;41.38;;;;;;;7.39;100.00;100202.16;4935224;29;20031;-74
2022/11/16 05:06:52;;;;;;;88.50;39.42;;;;;;;7.47;100.00;100199.53;4949597;29;20063;-71
2022/11/16 05:09:18;;;;;;;94.70;39.72;;;;;;;7.21;100.00;100204.84;4933985;29;20106;-72
2022/11/16 05:11:43;;;;;;;87.95;40.05;;;;;;;7.24;100.00;100210.78;4934013;29;20472;-73
2022/11/16 05:14:09;;;;;;;87.43;39.95;;;;;;;7.30;100.00;100207.47;4949312;29;20031;-73
2022/11/16 05:16:35;;;;;;;94.65;41.75;;;;;;;7.21;100.00;100204.84;4949875;29;20040;-73
2022/11/16 05:21:44;;;;;;;90.65;41.58;;;;;;;7.20;100.00;100206.69;4934884;29;20036;-74
2022/11/16 05:26:53;;;;;;;89.07;41.20;;;;;;;7.29;100.00;100211.13;4934847;29;20028;-74
2022/11/16 05:29:19;;;;;;;84.45;38.67;;;;;;;7.21;100.00;100208.38;4933676;29;20160;-73
2022/11/16 05:31:44;;;;;;;92.95;40.95;;;;;;;7.16;100.00;100207.97;4933948;29;20095;-73
2022/11/16 05:34:10;;;;;;;101.43;42.50;;;;;;;7.17;100.00;100208.81;4933449;29;20504;-74
2022/11/16 05:36:35;;;;;;;103.43;42.60;;;;;;;7.13;100.00;100207.44;4934737;28;20085;-74
2022/11/16 05:39:01;;;;;;;104.53;43.65;;;;;;;7.11;100.00;100198.66;4933104;29;20031;-74
2022/11/16 05:41:26;;;;;;;113.22;44.88;;;;;;;7.04;100.00;100214.56;4934508;29;20407;-74
2022/11/16 05:43:53;;;;;;;105.32;44.40;;;;;;;7.07;100.00;100203.50;4934992;29;20605;-74
2022/11/16 05:46:19;;;;;;;106.15;45.00;;;;;;;7.00;100.00;100197.06;4933578;29;20397;-74
2022/11/16 05:48:44;;;;;;;113.88;44.63;;;;;;;7.03;100.00;100207.50;4949453;28;20032;-74
2022/11/16 05:51:09;;;;;;;99.60;41.65;;;;;;;6.97;100.00;100197.34;4949606;28;20054;-73
2022/11/16 05:53:35;;;;;;;112.65;45.30;;;;;;;6.98;100.00;100199.06;4948815;28;20109;-73
2022/11/16 05:56:00;;;;;;;96.65;43.50;;;;;;;6.94;100.00;100197.66;4949143;29;20070;-74
2022/11/16 05:58:25;;;;;;;103.07;43.95;;;;;;;6.93;100.00;100201.34;4949450;29;20036;-73
2022/11/16 06:00:51;;;;;;;99.90;41.47;;;;;;;6.95;100.00;100193.97;4949825;29;20122;-74
2022/11/16 06:03:16;;;;;;;104.25;42.90;;;;;;;7.13;100.00;100191.28;4949004;29;20038;-74
2022/11/16 06:05:41;;;;;;;105.53;43.33;;;;;;;7.18;100.00;100195.22;4949375;29;20395;-74
2022/11/16 06:08:07;;;;;;;99.80;42.13;;;;;;;7.00;100.00;100194.34;4934191;28;20452;-74
2022/11/16 06:10:33;;;;;;;105.22;40.42;;;;;;;7.13;100.00;100202.91;4933443;29;20023;-74
2022/11/16 06:12:58;;;;;;;103.45;43.20;;;;;;;7.17;100.00;100198.94;4923568;29;20031;-74
2022/11/16 06:15:24;;;;;;;104.95;43.45;;;;;;;7.08;100.00;100195.28;4930251;29;20035;-74
2022/11/16 06:17:49;;;;;;;90.93;39.58;;;;;;;7.01;100.00;100201.44;4930597;29;20032;-74
2022/11/16 06:20:15;;;;;;;93.68;40.13;;;;;;;7.08;100.00;100199.81;4915922;29;20036;-74
2022/11/16 06:22:40;;;;;;;94.43;41.33;;;;;;;7.09;100.00;100201.50;4915625;29;20035;-74
2022/11/16 06:25:06;;;;;;;99.40;40.70;;;;;;;7.05;100.00;100200.13;4929583;29;20122;-74
2022/11/16 06:27:31;;;;;;;94.85;41.10;;;;;;;7.05;100.00;100192.06;4944985;29;20043;-73
2022/11/16 06:29:57;;;;;;;92.32;40.83;;;;;;;7.06;100.00;100201.81;4948698;29;20030;-74
2022/11/16 06:32:22;;;;;;;89.80;40.03;;;;;;;7.17;100.00;100198.94;4935110;29;20035;-74
2022/11/16 06:34:47;;;;;;;78.97;37.30;;;;;;;7.06;100.00;100209.91;4951870;29;20034;-74
2022/11/16 06:37:13;;;;;;;88.35;39.47;;;;;;;7.10;100.00;100213.97;4949562;29;20033;-73
2022/11/16 06:39:38;;;;;;;84.97;39.38;;;;;;;7.11;100.00;100199.53;4951775;29;20032;-73
2022/11/16 06:42:03;;;;;;;85.95;38.85;;;;;;;7.13;100.00;100213.69;4937610;29;20414;-74
2022/11/16 06:44:29;;;;;;;80.40;36.78;;;;;;;7.15;100.00;100211.66;4952570;29;20056;-74
2022/11/16 06:46:54;;;;;;;82.22;36.67;;;;;;;7.10;100.00;100219.34;4936641;29;20079;-74
2022/11/16 06:49:19;;;;;;;78.65;36.92;;;;;;;6.97;100.00;100213.47;4952338;29;20020;-74
2022/11/16 06:51:45;;;;;;;85.68;36.83;;;;;;;6.89;100.00;100211.56;4937748;29;20039;-74
2022/11/16 06:54:10;;;;;;;81.30;35.67;;;;;;;7.04;100.00;100214.56;4951825;29;20032;-74
2022/11/16 06:56:36;;;;;;;75.93;36.40;;;;;;;7.09;100.00;100217.66;4935614;29;20159;-74
2022/11/16 06:59:01;;;;;;;72.78;34.95;;;;;;;7.15;100.00;100211.66;4937166;29;20059;-74
2022/11/16 07:01:26;;;;;;;75.43;35.85;;;;;;;7.15;100.00;100211.66;4952112;29;20036;-74
2022/11/16 07:03:52;;;;;;;72.35;35.30;;;;;;;7.16;100.00;100212.50;4951125;29;20093;-74
2022/11/16 07:06:17;;;;;;;74.35;34.95;;;;;;;7.04;100.00;100203.81;4934997;29;20103;-73
2022/11/16 07:08:43;;;;;;;79.43;34.63;;;;;;;7.27;100.00;100215.84;4935468;29;20032;-74
2022/11/16 07:11:09;;;;;;;80.85;36.72;;;;;;;7.10;100.00;100203.19;4934429;29;20091;-73
2022/11/16 07:13:36;;;;;;;70.97;34.40;;;;;;;7.17;100.00;100198.94;4927790;29;20028;-73
2022/11/16 07:16:10;;;;;;;78.57;36.03;;;;;;;7.12;100.00;100206.59;4932550;29;20026;-74
2022/11/16 07:18:38;;;;;;;76.22;37.13;;;;;;;7.27;100.00;100210.44;4935828;29;20119;-74
2022/11/16 07:21:07;;;;;;;68.30;36.30;;;;;;;7.10;100.00;100203.19;4951561;29;20024;-73
2022/11/16 07:23:33;;;;;;;72.78;35.08;;;;;;;7.25;100.00;100211.63;4936543;29;20055;-75
2022/11/16 07:26:00;;;;;;;70.40;34.88;;;;;;;7.08;100.00;100205.19;4935144;29;20099;-75
2022/11/16 07:28:27;;;;;;;74.05;35.53;;;;;;;7.18;100.00;100219.47;4933312;29;20039;-75
2022/11/16 07:30:52;;;;;;;71.72;34.40;;;;;;;7.37;100.00;100213.09;4916403;29;20024;-75
2022/11/16 07:33:18;;;;;;;68.30;34.50;;;;;;;7.46;100.00;100216.69;4931866;29;20035;-75
2022/11/16 07:35:43;;;;;;;78.25;38.10;;;;;;;7.33;100.00;100215.22;4916915;29;20072;-74
2022/11/16 07:38:08;;;;;;;75.43;37.63;;;;;;;7.14;100.00;100209.97;4927653;28;20051;-75
2022/11/16 07:40:34;;;;;;;74.95;36.35;;;;;;;7.12;100.00;100212.00;4930892;28;20031;-75
2022/11/16 07:42:59;;;;;;;74.28;36.70;;;;;;;7.23;100.00;100209.06;4938178;28;20055;-75
2022/11/16 07:45:24;;;;;;;78.13;37.45;;;;;;;7.21;100.00;100211.06;4939162;28;20510;-75
2022/11/16 07:47:52;;;;;;;73.15;36.75;;;;;;;7.52;100.00;100213.38;4933577;28;20027;-75
2022/11/16 07:50:17;;;;;;;72.25;36.03;;;;;;;7.28;100.00;100200.53;4929237;28;20045;-75
2022/11/16 07:52:45;;;;;;;78.07;37.97;;;;;;;7.35;100.00;100213.22;4925943;29;20495;-75
2022/11/16 07:55:13;;;;;;;76.00;36.22;;;;;;;7.32;100.00;100213.53;4924067;29;20042;-75
2022/11/16 07:57:38;;;;;;;80.45;36.70;;;;;;;7.25;100.00;100211.63;4938481;28;20107;-75
2022/11/16 08:00:05;;;;;;;73.75;36.65;;;;;;;7.33;100.00;100220.59;4936880;28;20107;-75
2022/11/16 08:02:30;;;;;;;76.38;38.67;;;;;;;7.24;100.00;100210.78;4939488;28;20098;-75
2022/11/16 08:04:56;;;;;;;74.68;36.80;;;;;;;7.29;100.00;100213.81;4926926;29;20495;-75
2022/11/16 08:07:21;;;;;;;85.25;39.05;;;;;;;7.20;100.00;100209.38;4925460;29;20027;-75
2022/11/16 08:09:47;;;;;;;80.72;37.75;;;;;;;7.23;100.00;100224.34;4924315;29;20120;-75
2022/11/16 08:12:12;;;;;;;78.63;39.13;;;;;;;7.33;100.00;100220.59;4943274;28;20015;-74
2022/11/16 08:14:37;;;;;;;79.10;39.35;;;;;;;7.37;100.00;100220.28;4938005;28;20087;-75
2022/11/16 08:17:04;;;;;;;72.88;36.80;;;;;;;7.45;100.00;100228.47;4929328;29;20035;-75
2022/11/16 08:19:29;;;;;;;78.90;39.70;;;;;;;7.41;100.00;100222.53;4925019;29;20035;-75
2022/11/16 08:21:55;;;;;;;75.97;39.63;;;;;;;7.20;100.00;100222.84;4923763;29;20039;-75
2022/11/16 08:24:20;;;;;;;83.93;39.17;;;;;;;7.17;100.00;100220.47;4921696;29;20106;-74
2022/11/16 08:26:45;;;;;;;84.55;38.67;;;;;;;7.27;100.00;100215.84;4928230;29;20106;-74
2022/11/16 08:29:11;;;;;;;76.95;36.83;;;;;;;7.10;100.00;100224.72;4936581;28;20032;-74
2022/11/16 08:31:37;;;;;;;77.63;37.30;;;;;;;7.16;100.00;100225.97;4927156;29;20027;-74
2022/11/16 08:34:02;;;;;;;83.90;40.38;;;;;;;7.17;100.00;100231.22;4925177;29;20103;-74
2022/11/16 08:36:28;;;;;;;75.53;36.55;;;;;;;7.27;100.00;100226.59;4923554;29;20055;-74
2022/11/16 08:38:53;;;;;;;79.00;41.13;;;;;;;7.29;100.00;100235.38;4920927;29;20079;-74
2022/11/16 08:41:20;;;;;;;81.05;38.40;;;;;;;7.02;100.00;100243.50;4927324;29;20032;-74
2022/11/16 08:43:46;;;;;;;86.55;41.35;;;;;;;7.03;100.00;100231.72;4923493;29;20031;-74
2022/11/16 08:46:12;;;;;;;81.78;38.38;;;;;;;6.92;100.00;100234.66;4927188;29;20472;-74
2022/11/16 08:48:37;;;;;;;81.07;37.22;;;;;;;6.98;100.00;100231.34;4937124;28;20111;-74
2022/11/16 08:51:12;;;;;;;92.35;39.95;;;;;;;6.95;100.00;100227.09;4936093;28;20084;-74
2022/11/16 08:53:37;;;;;;;90.43;42.22;;;;;;;6.97;100.00;100243.09;4935955;28;20024;-74
2022/11/16 08:56:04;;;;;;;83.57;38.90;;;;;;;7.13;100.00;100243.28;4928193;29;20023;-74
2022/11/16 08:58:30;;;;;;;78.00;38.22;;;;;;;7.20;100.00;100244.38;4927417;29;20361;-74
2022/11/16 09:00:56;;;;;;;91.97;41.17;;;;;;;7.06;100.00;100239.50;4924314;29;20091;-74
2022/11/16 09:03:21;;;;;;;90.32;39.30;;;;;;;7.22;100.00;100239.66;4923357;29;20042;-75
2022/11/16 09:05:47;;;;;;;84.63;39.67;;;;;;;7.06;100.00;100240.34;4929661;29;20059;-74
2022/11/16 09:08:12;;;;;;;86.85;39.03;;;;;;;7.04;100.00;100236.09;4933727;29;20087;-75
2022/11/16 09:10:38;;;;;;;90.80;40.00;;;;;;;6.85;100.00;100230.88;4936204;29;20032;-74
2022/11/16 09:13:03;;;;;;;85.38;39.05;;;;;;;6.90;100.00;100240.16;4960502;28;20023;-74
2022/11/16 09:15:29;;;;;;;86.95;43.00;;;;;;;6.94;100.00;100238.03;4944898;28;20104;-74
2022/11/16 09:17:54;;;;;;;88.05;39.38;;;;;;;7.00;100.00;100246.34;4912407;28;20114;-73
2022/11/16 09:20:20;;;;;;;91.45;40.08;;;;;;;7.12;100.00;100249.66;4934548;29;20377;-74
2022/11/16 09:22:45;;;;;;;95.50;40.80;;;;;;;6.86;100.00;100232.56;4921958;29;20042;-74
2022/11/16 09:25:11;;;;;;;105.47;44.50;;;;;;;6.91;100.00;100251.75;4940496;28;20055;-73
2022/11/16 09:27:36;;;;;;;99.85;42.20;;;;;;;6.85;100.00;100257.78;4945404;29;20027;-74
2022/11/16 09:30:03;;;;;;;95.20;40.20;;;;;;;6.93;100.00;100250.63;4941844;29;20127;-73
2022/11/16 09:32:29;;;;;;;97.88;42.63;;;;;;;6.84;100.00;100258.75;4927525;29;20046;-73
2022/11/16 09:34:54;;;;;;;109.30;46.55;;;;;;;6.76;100.00;100260.34;4943572;28;20027;-73
2022/11/16 09:37:19;;;;;;;117.88;47.58;;;;;;;6.71;100.00;100251.84;4931783;29;20026;-73
2022/11/16 09:39:45;;;;;;;113.57;46.83;;;;;;;6.68;100.00;100254.00;4948278;28;20036;-74
2022/11/16 09:42:47;;;;;;;111.50;46.45;;;;;;;6.88;100.00;100268.22;4925966;29;20027;-73
2022/11/16 09:45:35;;;;;;;121.60;46.25;;;;;;;6.79;100.00;100254.66;4936402;28;20032;-74
2022/11/16 09:48:04;;;;;;;113.80;47.50;;;;;;;6.83;100.00;100262.44;4927880;28;20354;-74
2022/11/16 09:50:42;;;;;;;109.53;45.08;;;;;;;6.70;100.00;100266.31;4929648;29;20035;-74
2022/11/16 09:53:41;;;;;;;119.10;44.47;;;;;;;6.78;100.00;100269.13;4940201;28;20035;-72
2022/11/16 09:56:09;;;;;;;115.70;44.90;;;;;;;6.84;100.00;100267.66;4938035;29;20050;-75
2022/11/16 09:58:46;;;;;;;118.50;45.35;;;;;;;6.78;100.00;100269.13;4945447;28;20059;-72
2022/11/16 10:01:33;;;;;;;107.80;43.70;;;;;;;6.67;100.00;100255.84;4942670;28;20035;-73
2022/11/16 10:04:37;;;;;;;118.40;46.25;;;;;;;6.70;100.00;100277.06;4938646;28;20023;-73
2022/11/16 10:07:40;;;;;;;116.35;43.42;;;;;;;6.78;100.00;100274.50;4919274;29;20047;-73
2022/11/16 10:10:14;;;;;;;110.88;43.40;;;;;;;6.88;100.00;100276.28;4934787;29;20488;-73
2022/11/16 10:12:42;;;;;;;112.55;42.40;;;;;;;6.97;100.00;100283.47;4928873;29;20035;-73
2022/11/16 10:15:15;;;;;;;111.32;44.53;;;;;;;6.97;100.00;100291.53;4934699;28;20169;-73
2022/11/16 10:17:56;;;;;;;122.88;47.53;;;;;;;6.79;100.00;100280.72;4944759;29;20035;-74
2022/11/16 10:20:32;;;;;;;115.93;46.83;;;;;;;6.88;100.00;100281.66;4932581;29;20066;-74
2022/11/16 10:23:13;;;;;;;117.10;45.63;;;;;;;6.87;100.00;100277.28;4918953;28;20074;-74
2022/11/16 10:25:44;;;;;;;;;;;;;;;6.97;100.00;100272.69;4923089;28;20044;-73
2022/11/16 10:28:41;;;;;;;125.50;44.75;;;;;;;7.01;100.00;100274.09;4919348;29;19914;-74
2022/11/16 10:31:21;;;;;;;119.03;43.00;;;;;;;7.00;100.00;100277.78;4923922;29;20138;-74
2022/11/16 10:33:51;;;;;;;126.60;45.55;;;;;;;6.88;100.00;100285.22;4925658;29;20032;-74
2022/11/16 10:36:19;;;;;;;118.38;46.20;;;;;;;6.79;100.00;100276.19;4924163;29;20114;-73
2022/11/16 10:38:44;;;;;;;123.80;45.70;;;;;;;6.82;100.00;100274.19;4938612;28;20102;-73
2022/11/16 10:41:30;;;;;;;133.45;47.03;;;;;;;6.86;100.00;100280.97;4940028;28;20039;-74
2022/11/16 10:43:58;;;;;;;128.60;48.75;;;;;;;6.76;100.00;100276.47;4920622;29;20024;-74
2022/11/16 10:46:32;;;;;;;113.90;44.42;;;;;;;6.80;100.00;100277.88;4925731;29;20110;-73
2022/11/16 10:49:10;;;;;;;119.35;44.83;;;;;;;7.07;100.00;100284.25;4919904;29;20038;-74
2022/11/16 10:51:36;;;;;;;122.22;43.35;;;;;;;7.20;100.00;100284.75;4915654;29;20024;-74
2022/11/16 10:54:03;;;;;;;137.02;47.88;;;;;;;7.12;100.00;100281.97;4919177;29;20048;-74
2022/11/16 10:56:33;;;;;;;119.68;45.25;;;;;;;7.05;100.00;100280.88;4936362;28;20032;-74
2022/11/16 10:59:00;;;;;;;132.63;46.75;;;;;;;7.04;100.00;100281.84;4922803;29;20035;-74
2022/11/16 11:01:29;;;;;;;134.25;47.10;;;;;;;7.05;100.00;100275.50;4931021;28;20393;-74
2022/11/16 11:03:54;;;;;;;136.07;45.15;;;;;;;7.00;100.00;100272.41;4916086;29;20054;-74
2022/11/16 11:06:24;;;;;;;142.10;50.05;;;;;;;6.90;100.00;100258.16;4916096;29;20110;-74
2022/11/16 11:08:50;;;;;;;148.00;47.85;;;;;;;6.86;100.00;100270.22;4932559;28;20064;-73
2022/11/16 11:14:12;;;;;;;134.57;47.25;;;;;;;6.97;100.00;100267.31;4914983;29;20137;-74
2022/11/16 11:16:40;;;;;;;153.48;52.08;;;;;;;6.98;100.00;100263.66;4915277;29;20440;-74
2022/11/16 11:19:26;;;;;;;139.35;47.05;;;;;;;6.87;100.00;100261.16;4930577;28;20035;-73
2022/11/16 11:21:57;;;;;;;138.90;48.30;;;;;;;6.98;100.00;100274.41;4937361;28;20039;-73
2022/11/16 11:24:24;;;;;;;133.02;46.63;;;;;;;7.07;100.00;100268.97;4919908;29;20043;-74
2022/11/16 11:26:56;;;;;;;121.90;42.08;;;;;;;7.13;100.00;100256.75;4922679;29;20023;-73
2022/11/16 11:29:30;;;;;;;129.82;46.15;;;;;;;7.23;100.00;100262.91;4920199;29;20024;-73
2022/11/16 11:32:04;;;;;;;127.18;43.17;;;;;;;7.31;100.00;100271.09;4922372;29;20038;-73
2022/11/16 11:34:33;;;;;;;118.88;41.88;;;;;;;7.32;100.00;100259.31;4937914;28;20086;-73
2022/11/16 11:37:01;;;;;;;130.05;47.88;;;;;;;7.24;100.00;100251.16;4930129;28;20072;-74
2022/11/16 11:39:32;;;;;;;128.18;46.15;;;;;;;7.28;100.00;100254.38;4917147;29;20039;-74
2022/11/16 11:42:03;;;;;;;125.05;45.67;;;;;;;7.53;100.00;100258.16;4934162;28;20094;-74
2022/11/16 11:44:39;;;;;;;129.82;48.33;;;;;;;7.35;100.00;100261.69;4920845;29;20429;-73
2022/11/16 11:47:05;;;;;;;138.15;48.03;;;;;;;7.33;100.00;100258.31;4936908;28;20476;-73
2022/11/16 11:49:34;;;;;;;134.65;46.33;;;;;;;7.48;100.00;100255.06;4923917;29;20136;-74
2022/11/16 11:52:09;;;;;;;136.80;49.10;;;;;;;7.26;100.00;100257.22;4937283;28;20470;-73
2022/11/16 11:54:45;;;;;;;142.40;46.60;;;;;;;7.46;100.00;100251.72;4926223;29;20357;-74
2022/11/16 11:57:19;;;;;;;141.48;48.17;;;;;;;7.20;100.00;100263.22;4943734;28;20104;-73
2022/11/16 11:59:45;;;;;;;141.05;48.72;;;;;;;7.30;100.00;100255.06;4931266;29;20078;-74
2022/11/16 12:02:30;;;;;;;148.05;49.53;;;;;;;7.39;100.00;100261.41;4927085;28;20127;-74
2022/11/16 12:05:01;;;;;;;147.98;50.35;;;;;;;7.34;100.00;100260.00;4924833;28;20047;-74